Time;durP1;ratioP1;P1;durP2;ratioP2;P2;SDS_P1;SDS_P2;PMS_P1;PMS_P2;Temp;Humidity;BMP_temperature;BMP_pressure;BME280_temperature;BME280_humidity;BME280_pressure;Samples;Min_cycle;Max_cycle;Signal;HPM_P1;HPM_P2
2022/04/19 00:00:21;;;;;;;;;10.50;9.50;;;;;15.78;79.73;101237.94;5074943;28;45565;-74
2022/04/19 00:02:47;;;;;;;;;11.00;10.50;;;;;15.83;80.32;101251.13;5074921;28;45597;-73
2022/04/19 00:05:13;;;;;;;;;11.50;10.50;;;;;15.82;80.77;101249.34;5075237;28;45573;-73
2022/04/19 00:07:39;;;;;;;;;10.50;9.50;;;;;15.81;80.45;101239.75;5074756;28;45631;-73
2022/04/19 00:10:06;;;;;;;;;13.75;11.50;;;;;15.75;80.83;101236.97;5075048;28;45296;-73
2022/04/19 00:12:32;;;;;;;;;11.50;11.25;;;;;15.77;79.69;101238.75;5074738;28;45363;-74
2022/04/19 00:14:58;;;;;;;;;11.00;10.00;;;;;15.77;79.74;101248.31;5075095;28;45747;-73
2022/04/19 00:17:24;;;;;;;;;8.50;7.50;;;;;15.71;79.56;101238.56;5076645;28;46031;-73
2022/04/19 00:19:50;;;;;;;;;11.50;10.25;;;;;15.68;79.14;101229.75;5077770;28;45206;-73
2022/04/19 00:22:17;;;;;;;;;7.50;6.00;;;;;15.67;78.26;101235.81;5077983;28;45494;-73
2022/04/19 00:24:43;;;;;;;;;7.75;7.75;;;;;15.59;77.58;101233.00;5059568;28;45350;-74
2022/04/19 00:27:09;;;;;;;;;7.00;5.50;;;;;15.54;77.37;101230.25;5078106;28;45188;-72
2022/04/19 00:29:34;;;;;;;;;6.75;5.75;;;;;15.56;76.79;101235.50;5078690;28;45447;-73
2022/04/19 00:32:00;;;;;;;;;8.50;7.00;;;;;15.56;76.14;101232.88;5078012;28;45241;-73
2022/04/19 00:34:26;;;;;;;;;9.75;7.25;;;;;15.55;75.43;101236.34;5078271;27;45426;-73
2022/04/19 00:36:51;;;;;;;;;9.00;7.00;;;;;15.42;74.70;101227.25;5077673;27;46433;-73
2022/04/19 00:39:17;;;;;;;;;8.50;7.00;;;;;15.44;74.26;101231.66;5059406;28;45524;-75
2022/04/19 00:41:42;;;;;;;;;7.50;5.75;;;;;15.40;73.97;101223.69;5077807;27;45557;-73
2022/04/19 00:44:08;;;;;;;;;8.75;7.50;;;;;15.40;74.27;101227.19;5078591;28;45389;-74
2022/04/19 00:46:33;;;;;;;;;8.50;7.00;;;;;15.36;75.04;101229.63;5078619;28;45826;-73
2022/04/19 00:48:59;;;;;;;;;12.00;10.50;;;;;15.29;76.27;101242.50;5077678;28;45442;-74
2022/04/19 00:51:27;;;;;;;;;9.50;8.75;;;;;15.17;76.68;101218.63;5077663;28;45603;-73
2022/04/19 00:53:52;;;;;;;;;11.00;9.00;;;;;15.10;78.37;101227.97;5078069;28;45592;-74
2022/04/19 00:56:18;;;;;;;;;13.25;9.00;;;;;15.04;79.19;101234.69;5077379;28;46163;-73
2022/04/19 00:58:44;;;;;;;;;13.00;12.00;;;;;15.00;79.83;101226.78;5077678;27;45434;-73
2022/04/19 01:01:09;;;;;;;;;12.75;12.00;;;;;14.98;79.77;101225.84;5077519;28;45528;-73
2022/04/19 01:03:37;;;;;;;;;14.50;11.75;;;;;14.96;80.18;101219.69;5078654;28;45340;-74
2022/04/19 01:06:04;;;;;;;;;13.50;13.00;;;;;14.83;80.59;101209.69;5060076;28;47327;-73
2022/04/19 01:08:30;;;;;;;;;13.00;11.25;;;;;14.84;81.75;101222.78;5077779;27;45326;-73
2022/04/19 01:13:40;;;;;;;;;15.75;12.50;;;;;14.72;81.02;101217.16;5077489;27;45277;-73
2022/04/19 01:16:06;;;;;;;;;11.00;10.00;;;;;14.67;80.49;101217.00;5077618;28;46235;-72
2022/04/19 01:18:32;;;;;;;;;11.50;11.00;;;;;14.65;79.91;101222.94;5077263;28;45389;-75
2022/04/19 01:20:58;;;;;;;;;12.00;9.00;;;;;14.59;79.78;101217.53;5077002;28;45484;-74
2022/04/19 01:23:24;;;;;;;;;10.50;10.00;;;;;14.53;79.03;101215.59;5077776;27;45441;-74
2022/04/19 01:25:51;;;;;;;;;16.00;9.50;;;;;14.46;78.99;101208.41;5076914;27;46234;-74
2022/04/19 01:28:20;;;;;;;;;10.00;9.00;;;;;14.47;78.79;101208.44;5075905;28;45887;-73
2022/04/19 01:30:54;;;;;;;;;11.25;8.75;;;;;14.47;77.74;101213.66;5076839;28;45387;-73
2022/04/19 01:33:21;;;;;;;;;10.75;8.00;;;;;14.49;77.56;101214.59;5076754;28;45379;-73
2022/04/19 01:35:48;;;;;;;;;7.75;7.00;;;;;14.44;77.35;101200.50;5076845;27;45978;-73
2022/04/19 01:38:14;;;;;;;;;8.75;8.75;;;;;14.50;77.08;101207.66;5077175;28;45894;-75
2022/04/19 01:40:40;;;;;;;;;6.25;6.25;;;;;14.51;76.60;101212.03;5076831;28;45492;-74
2022/04/19 01:43:06;;;;;;;;;9.50;8.75;;;;;14.47;76.46;101202.34;5077571;28;45466;-73
2022/04/19 01:45:33;;;;;;;;;11.50;7.50;;;;;14.47;76.51;101202.34;5076100;27;45372;-73
2022/04/19 01:48:00;;;;;;;;;9.75;9.00;;;;;14.35;76.64;101211.50;5076137;27;45932;-73
2022/04/19 01:50:28;;;;;;;;;7.00;7.00;;;;;14.24;76.50;101205.03;5077095;28;45371;-74
2022/04/19 01:52:56;;;;;;;;;10.50;6.75;;;;;14.24;76.42;101208.50;5077104;28;45276;-74
2022/04/19 01:55:22;;;;;;;;;8.00;8.00;;;;;14.31;76.00;101214.81;5076721;28;45462;-74
2022/04/19 01:57:50;;;;;;;;;6.00;6.00;;;;;14.31;75.77;101208.72;5076228;28;45778;-74
2022/04/19 02:00:16;;;;;;;;;11.25;7.00;;;;;14.32;76.08;101206.19;5076815;28;45337;-73
2022/04/19 02:02:43;;;;;;;;;9.75;9.00;;;;;14.28;76.91;101212.09;5076810;28;45466;-74
2022/04/19 02:05:09;;;;;;;;;7.00;7.00;;;;;14.15;76.96;101215.06;5077077;28;46140;-73
2022/04/19 02:07:43;;;;;;;;;9.75;8.75;;;;;14.11;76.84;101216.69;5076817;28;45379;-74
2022/04/19 02:10:10;;;;;;;;;8.50;6.25;;;;;14.04;76.46;101210.38;5076941;28;45382;-74
2022/04/19 02:12:36;;;;;;;;;6.75;5.50;;;;;14.07;77.75;101212.22;5077679;27;45648;-73
2022/04/19 02:15:03;;;;;;;;;7.50;7.25;;;;;14.04;77.27;101218.19;5076406;28;46339;-73
2022/04/19 02:17:28;;;;;;;;;5.50;5.50;;;;;13.91;77.42;101211.63;5076376;28;45465;-73
2022/04/19 02:20:03;;;;;;;;;7.75;6.00;;;;;13.83;77.80;101214.78;5076304;28;45340;-73
2022/04/19 02:22:30;;;;;;;;;5.50;5.00;;;;;13.74;78.11;101213.59;5076998;28;45254;-73
2022/04/19 02:24:57;;;;;;;;;7.75;7.75;;;;;13.73;78.36;101210.94;5075900;27;46360;-73
2022/04/19 02:27:24;;;;;;;;;7.00;5.75;;;;;13.66;78.25;101203.75;5076100;28;45909;-73
2022/04/19 02:29:50;;;;;;;;;6.00;6.00;;;;;13.65;78.19;101215.84;5076687;28;45466;-73
2022/04/19 02:32:16;;;;;;;;;6.75;6.75;;;;;13.56;79.28;101207.69;5076584;28;45543;-73
2022/04/19 02:34:42;;;;;;;;;5.75;5.75;;;;;13.43;79.53;101208.94;5075450;27;45582;-73
2022/04/19 02:37:08;;;;;;;;;3.50;2.25;;;;;13.34;79.58;101199.00;5076352;28;45367;-73
2022/04/19 02:39:34;;;;;;;;;6.00;5.75;;;;;13.32;79.40;101193.75;5076045;28;45494;-73
2022/04/19 02:41:59;;;;;;;;;8.25;6.00;;;;;13.30;79.28;101195.41;5075913;28;45344;-73
2022/04/19 02:44:25;;;;;;;;;7.75;7.25;;;;;13.32;79.60;101205.84;5077497;27;46288;-73
2022/04/19 02:46:50;;;;;;;;;10.00;8.00;;;;;13.28;79.93;101210.06;5079353;27;45458;-73
2022/04/19 02:49:16;;;;;;;;;6.25;6.00;;;;;13.22;80.11;101209.81;5076370;27;45277;-73
2022/04/19 02:51:42;;;;;;;;;8.25;7.00;;;;;13.22;80.52;101208.91;5075610;28;45352;-73
2022/04/19 02:54:07;;;;;;;;;6.75;6.75;;;;;13.23;81.17;101208.97;5076143;28;46128;-73
2022/04/19 02:56:33;;;;;;;;;9.50;7.00;;;;;13.19;80.48;101207.09;5076273;28;45360;-73
2022/04/19 02:58:59;;;;;;;;;5.00;5.00;;;;;13.22;80.51;101202.03;5075976;28;45346;-73
2022/04/19 03:01:26;;;;;;;;;5.75;4.00;;;;;13.14;80.72;101187.81;5076148;28;45299;-73
2022/04/19 03:03:52;;;;;;;;;8.75;8.00;;;;;13.17;80.75;101195.72;5075611;28;45577;-73
2022/04/19 03:06:18;;;;;;;;;7.75;5.75;;;;;13.07;80.71;101181.47;5076176;28;45433;-73
2022/04/19 03:08:43;;;;;;;;;8.75;7.00;;;;;13.20;80.89;101179.38;5056907;28;45916;-73
2022/04/19 03:11:09;;;;;;;;;5.75;5.75;;;;;13.22;80.38;101181.22;5076249;28;45502;-73
2022/04/19 03:13:36;;;;;;;;;6.50;6.00;;;;;13.21;80.66;101169.03;5076340;28;46493;-73
2022/04/19 03:16:02;;;;;;;;;6.75;5.75;;;;;13.19;80.14;101168.09;5075747;27;45496;-73
2022/04/19 03:18:27;;;;;;;;;6.50;6.00;;;;;13.27;80.35;101177.06;5084269;27;45245;-75
2022/04/19 03:20:53;;;;;;;;;7.25;6.00;;;;;13.26;80.66;101180.50;5084059;27;45270;-75
2022/04/19 03:28:47;;;;;;;;;5.00;5.00;;;;;13.17;80.50;101164.53;5083932;27;45430;-74
2022/04/19 03:31:13;;;;;;;;;6.00;6.00;;;;;13.27;80.88;101181.41;5069207;27;45386;-74
2022/04/19 03:33:40;;;;;;;;;6.50;6.00;;;;;13.19;80.42;101168.09;5075251;28;46214;-74
2022/04/19 03:36:08;;;;;;;;;5.50;5.25;;;;;13.24;80.59;101179.53;5075808;28;45464;-74
2022/04/19 03:38:34;;;;;;;;;6.00;5.25;;;;;13.23;81.04;101175.16;5062715;28;45408;-74
2022/04/19 03:41:01;;;;;;;;;6.50;5.25;;;;;13.21;81.90;101173.34;5075565;28;45174;-74
2022/04/19 03:43:26;;;;;;;;;7.75;5.00;;;;;13.19;81.27;101170.69;5075185;28;45495;-74
2022/04/19 03:45:52;;;;;;;;;2.50;2.00;;;;;13.22;81.99;101176.03;5074483;28;45478;-73
2022/04/19 03:48:18;;;;;;;;;6.75;5.25;;;;;13.12;81.65;101164.34;5075480;28;45436;-73
2022/04/19 03:50:44;;;;;;;;;6.00;5.00;;;;;13.10;81.86;101166.00;5075195;28;45511;-73
2022/04/19 03:53:10;;;;;;;;;7.75;5.50;;;;;13.05;82.42;101156.25;5077790;28;45996;-73
2022/04/19 03:55:35;;;;;;;;;5.00;4.00;;;;;13.10;81.82;101172.94;5078737;28;45485;-73
2022/04/19 03:58:03;;;;;;;;;5.25;4.00;;;;;13.08;82.02;101159.84;5078574;28;45501;-73
2022/04/19 04:00:28;;;;;;;;;6.50;4.75;;;;;13.08;82.17;101156.38;5078458;28;45592;-73
2022/04/19 04:02:55;;;;;;;;;6.00;6.00;;;;;13.12;82.32;101158.28;5078124;28;45919;-72
2022/04/19 04:05:24;;;;;;;;;5.25;5.00;;;;;13.11;82.11;101162.56;5078538;28;45512;-73
2022/04/19 04:07:55;;;;;;;;;6.50;5.25;;;;;13.15;82.21;101163.59;5078765;28;45477;-73
2022/04/19 04:10:21;;;;;;;;;5.75;5.00;;;;;13.13;82.19;101162.63;5078500;28;45303;-73
2022/04/19 04:12:46;;;;;;;;;8.50;4.50;;;;;13.16;82.23;101171.47;5078245;27;45924;-73
2022/04/19 04:15:12;;;;;;;;;4.00;4.00;;;;;13.14;82.17;101164.41;5078446;28;45372;-73
2022/04/19 04:17:38;;;;;;;;;5.00;5.00;;;;;13.22;81.93;101165.63;5078434;28;45464;-72
2022/04/19 04:20:04;;;;;;;;;4.50;4.00;;;;;13.27;81.74;101171.88;5078862;28;45374;-73
2022/04/19 04:22:30;;;;;;;;;4.75;3.25;;;;;13.27;82.36;101169.28;5078312;28;45457;-73
2022/04/19 04:24:55;;;;;;;;;6.50;4.00;;;;;13.22;82.30;101168.22;5077457;27;45359;-76
2022/04/19 04:27:21;;;;;;;;;5.25;5.00;;;;;13.14;82.49;101167.00;5078353;28;45324;-74
2022/04/19 04:29:47;;;;;;;;;5.75;4.00;;;;;13.08;84.66;101172.84;5078473;28;45433;-73
2022/04/19 04:32:13;;;;;;;;;6.00;5.00;;;;;12.97;84.27;101181.91;5078077;27;46317;-75
2022/04/19 04:34:39;;;;;;;;;7.00;5.75;;;;;12.90;85.43;101173.00;5077642;27;45401;-73
2022/04/19 04:37:05;;;;;;;;;3.00;3.00;;;;;12.87;87.18;101177.16;5078488;28;45390;-77
2022/04/19 04:39:30;;;;;;;;;4.75;4.25;;;;;12.82;87.62;101174.38;5078017;28;45543;-74
2022/04/19 04:41:56;;;;;;;;;4.00;4.00;;;;;12.75;88.13;101168.03;5077685;28;46115;-74
2022/04/19 04:44:21;;;;;;;;;7.25;5.00;;;;;12.75;88.31;101177.56;5077503;27;45331;-75
2022/04/19 04:49:37;;;;;;;;;5.50;4.75;;;;;12.67;88.50;101175.53;5078079;28;45442;-75
2022/04/19 04:52:07;;;;;;;;;3.25;3.25;;;;;12.71;88.72;101176.53;5059359;28;47938;-74
2022/04/19 04:54:34;;;;;;;;;10.00;6.00;;;;;12.73;89.05;101187.91;5078276;28;45770;-75
2022/04/19 04:57:00;;;;;;;;;3.25;3.25;;;;;12.76;87.67;101189.72;5078147;28;45637;-74
2022/04/19 04:59:26;;;;;;;;;4.00;3.00;;;;;12.78;89.35;101186.38;5078813;28;45566;-74
2022/04/19 05:01:52;;;;;;;;;4.75;3.75;;;;;12.83;89.88;101192.66;5079506;28;45455;-73
2022/04/19 05:04:17;;;;;;;;;3.50;3.25;;;;;12.81;88.65;101193.38;5078091;28;45378;-74
2022/04/19 05:06:43;;;;;;;;;6.75;5.25;;;;;12.76;91.64;101195.78;5078096;28;45346;-74
2022/04/19 05:09:09;;;;;;;;;5.00;3.50;;;;;12.69;92.58;101186.84;5078034;28;45572;-73
2022/04/19 05:11:34;;;;;;;;;5.00;5.00;;;;;12.60;93.56;101188.19;5087367;27;45400;-74
2022/04/19 05:14:00;;;;;;;;;3.25;3.25;;;;;12.59;93.32;101194.22;5097856;27;45343;-73
2022/04/19 05:16:25;;;;;;;;;4.00;3.25;;;;;12.61;93.70;101189.97;5077644;27;45237;-73
2022/04/19 05:18:51;;;;;;;;;2.50;2.50;;;;;12.63;93.55;101191.81;5078096;28;45502;-74
2022/04/19 05:21:16;;;;;;;;;6.75;4.00;;;;;12.59;95.32;101192.47;5083421;27;45651;-74
2022/04/19 05:23:42;;;;;;;;;9.75;5.75;;;;;12.59;96.42;101195.06;5087013;27;45442;-73
2022/04/19 05:26:08;;;;;;;;;7.50;5.00;;;;;12.59;98.06;101202.88;5087845;27;45508;-75
2022/04/19 05:28:34;;;;;;;;;8.50;5.75;;;;;12.53;97.07;101194.84;5086512;27;45906;-75
2022/04/19 05:31:02;;;;;;;;;6.50;5.00;;;;;12.50;100.00;101194.69;5086103;27;45436;-73
2022/04/19 05:33:27;;;;;;;;;4.75;4.00;;;;;12.46;99.74;101190.22;5049739;28;45982;-76
2022/04/19 05:35:55;;;;;;;;;6.00;4.75;;;;;12.45;100.00;101181.50;5072077;28;45907;-74
2022/04/19 05:38:21;;;;;;;;;5.00;3.75;;;;;12.48;99.38;101192.03;5068001;28;45537;-73
2022/04/19 05:40:46;;;;;;;;;6.00;5.75;;;;;12.48;100.00;101196.31;5070390;27;46152;-75
2022/04/19 05:43:12;;;;;;;;;5.75;4.25;;;;;12.45;100.00;101197.09;5081418;27;45402;-73
2022/04/19 05:45:39;;;;;;;;;4.75;3.50;;;;;12.46;100.00;101201.47;5082719;27;45520;-73
2022/04/19 05:48:05;;;;;;;;;5.75;4.25;;;;;12.43;100.00;101195.25;5074003;27;45549;-73
2022/04/19 05:50:31;;;;;;;;;5.75;3.00;;;;;12.39;100.00;101194.25;5078254;27;46591;-77
2022/04/19 05:52:57;;;;;;;;;5.75;5.00;;;;;12.45;100.00;101199.69;5076769;28;45437;-75
2022/04/19 05:55:23;;;;;;;;;5.75;5.00;;;;;12.39;100.00;101179.53;5077105;28;45303;-74
2022/04/19 05:57:49;;;;;;;;;7.25;4.75;;;;;12.52;100.00;101200.84;5065701;27;45363;-73
2022/04/19 06:00:15;;;;;;;;;5.00;5.00;;;;;12.52;100.00;101199.16;5097588;27;45949;-80
2022/04/19 06:05:25;;;;;;;;;8.00;5.75;;;;;12.44;100.00;101197.91;5098359;27;45317;-77
2022/04/19 06:07:52;;;;;;;;;9.00;6.00;;;;;12.28;100.00;101200.69;5079948;27;45588;-76
2022/04/19 06:10:18;;;;;;;;;6.50;5.50;;;;;12.29;100.00;101200.72;5085074;27;45335;-76
2022/04/19 06:12:44;;;;;;;;;11.25;9.75;;;;;12.14;100.00;101179.31;5084921;27;45700;-85
2022/04/19 06:15:11;;;;;;;;;7.50;6.00;;;;;12.13;100.00;101182.72;5066186;27;45479;-81
2022/04/19 06:17:38;;;;;;;;;9.50;7.25;;;;;12.07;100.00;101181.59;5076560;27;45523;-79
2022/04/19 06:20:05;;;;;;;;;10.25;9.00;;;;;12.17;100.00;101198.50;5076825;27;45322;-79
2022/04/19 06:22:32;;;;;;;;;11.50;10.00;;;;;12.18;100.00;101207.16;5076952;27;45525;-85
2022/04/19 06:24:58;;;;;;;;;10.75;8.50;;;;;12.11;100.00;101189.53;5085524;27;45344;-84
2022/04/19 06:27:25;;;;;;;;;10.00;7.75;;;;;12.24;100.00;101212.63;5082026;27;45445;-79
2022/04/19 06:29:52;;;;;;;;;9.00;8.00;;;;;12.27;100.00;101210.16;5082110;28;45473;-80
2022/04/19 06:32:20;;;;;;;;;11.00;8.00;;;;;12.28;100.00;101206.75;5082317;28;45497;-81
2022/04/19 06:34:46;;;;;;;;;11.25;9.50;;;;;12.32;100.00;101205.16;5080430;28;45518;-84
2022/04/19 06:37:12;;;;;;;;;9.50;8.00;;;;;12.28;100.00;101195.47;5081849;28;45689;-83
2022/04/19 06:39:38;;;;;;;;;10.75;9.25;;;;;12.24;100.00;101186.69;5078254;27;45902;-77
2022/04/19 06:42:04;;;;;;;;;12.00;11.50;;;;;12.18;100.00;101182.09;5075364;28;45484;-81
2022/04/19 06:44:29;;;;;;;;;13.25;11.50;;;;;12.30;100.00;101199.91;5076068;28;45366;-82
2022/04/19 06:46:55;;;;;;;;;12.00;9.75;;;;;12.21;100.00;101164.03;5076506;28;45585;-81
2022/04/19 06:49:20;;;;;;;;;9.75;8.75;;;;;12.34;100.00;101191.44;5076663;28;45812;-81
2022/04/19 06:51:48;;;;;;;;;15.50;12.50;;;;;12.35;100.00;101192.31;5075602;28;45367;-79
2022/04/19 06:54:15;;;;;;;;;16.25;14.25;;;;;12.41;100.00;101192.59;5076464;28;45406;-81
2022/04/19 06:56:41;;;;;;;;;10.25;10.25;;;;;12.42;100.00;101186.56;5076950;28;45316;-79
2022/04/19 06:59:08;;;;;;;;;16.75;12.25;;;;;12.41;100.00;101191.69;5076320;27;45491;-79
2022/04/19 07:01:35;;;;;;;;;15.00;12.50;;;;;12.29;100.00;101168.69;5074544;28;45418;-79
2022/04/19 07:04:01;;;;;;;;;11.75;11.75;;;;;12.42;100.00;101190.88;5075947;28;45446;-78
2022/04/19 07:06:27;;;;;;;;;12.00;11.25;;;;;12.47;100.00;101192.00;5081178;27;45529;-76
2022/04/19 07:08:52;;;;;;;;;15.00;13.25;;;;;12.54;100.00;101196.59;5081709;28;46392;-79
2022/04/19 07:11:18;;;;;;;;;11.25;11.25;;;;;12.48;100.00;101178.16;5060688;28;45319;-84
2022/04/19 07:13:44;;;;;;;;;12.50;10.25;;;;;12.49;100.00;101186.03;5090352;27;45304;-81
2022/04/19 07:16:10;;;;;;;;;15.50;12.00;;;;;12.53;100.00;101184.44;5084017;28;46019;-85
2022/04/19 07:18:35;;;;;;;;;12.75;11.25;;;;;12.57;100.00;101191.56;5076941;27;45558;-78
2022/04/19 07:26:44;;;;;;;;;15.00;12.50;;;;;12.70;100.00;101185.16;5074327;28;45965;-73
2022/04/19 07:29:15;;;;;;;;;14.00;12.50;;;;;12.78;100.00;101193.28;5076776;27;45850;-73
2022/04/19 07:31:43;;;;;;;;;9.75;9.75;;;;;12.77;100.00;101175.91;5078116;28;45907;-75
2022/04/19 07:34:10;;;;;;;;;14.50;11.00;;;;;12.76;100.00;101179.34;5077711;27;45672;-73
2022/04/19 07:36:42;;;;;;;;;16.00;13.00;;;;;12.71;100.00;101163.56;5079584;28;45462;-73
2022/04/19 07:39:09;;;;;;;;;13.75;13.00;;;;;12.89;100.00;101194.63;5078896;27;45343;-75
2022/04/19 07:41:35;;;;;;;;;13.25;10.25;;;;;12.89;100.00;101181.63;5079061;27;45339;-74
2022/04/19 07:44:02;;;;;;;;;17.75;13.50;;;;;12.94;100.00;101190.47;5079323;28;45355;-78
2022/04/19 07:46:28;;;;;;;;;15.50;11.75;;;;;12.97;100.00;101194.91;5080064;28;45371;-77
2022/04/19 07:48:54;;;;;;;;;12.50;12.50;;;;;12.99;100.00;101188.06;5080146;28;45362;-74
2022/04/19 07:51:20;;;;;;;;;14.00;12.75;;;;;12.96;99.84;101182.75;5079642;27;45434;-73
2022/04/19 07:53:46;;;;;;;;;15.50;14.00;;;;;13.04;100.00;101185.66;5085912;27;45821;-79
2022/04/19 07:56:12;;;;;;;;;15.75;13.25;;;;;13.03;100.00;101179.59;5089881;27;45528;-76
2022/04/19 07:58:37;;;;;;;;;14.50;12.50;;;;;13.06;100.00;101179.72;5083329;28;46269;-78
2022/04/19 08:01:03;;;;;;;;;16.00;15.75;;;;;13.05;100.00;101187.44;5080992;27;45843;-77
2022/04/19 08:03:29;;;;;;;;;13.25;12.50;;;;;12.98;100.00;101171.59;5080259;28;45489;-81
2022/04/19 08:05:55;;;;;;;;;19.25;14.00;;;;;13.07;99.74;101175.41;5078994;28;45524;-74
2022/04/19 08:08:21;;;;;;;;;13.75;12.75;;;;;13.10;98.56;101173.81;5079173;28;45460;-78
2022/04/19 08:10:50;;;;;;;;;14.75;13.50;;;;;13.17;98.88;101187.94;5081304;27;45959;-77
2022/04/19 08:13:16;;;;;;;;;15.00;13.25;;;;;13.20;98.61;101177.66;5095292;27;45308;-78
2022/04/19 08:15:42;;;;;;;;;12.00;11.75;;;;;13.22;98.39;101172.53;5100090;27;45537;-75
2022/04/19 08:18:11;;;;;;;;;14.25;12.50;;;;;13.29;97.16;101172.81;5099493;27;45260;-74
2022/04/19 08:20:37;;;;;;;;;12.50;12.50;;;;;13.27;97.36;101166.66;5105599;27;45487;-74
2022/04/19 08:23:03;;;;;;;;;17.25;14.25;;;;;13.36;97.00;101179.16;5101287;27;45303;-75
2022/04/19 08:25:29;;;;;;;;;11.00;10.25;;;;;13.37;96.67;101167.94;5098982;27;45371;-75
2022/04/19 08:27:55;;;;;;;;;19.00;13.25;;;;;13.45;95.59;101173.44;5098379;27;46118;-78
2022/04/19 08:30:21;;;;;;;;;15.25;12.25;;;;;13.56;95.17;101179.06;5097896;27;45226;-76
2022/04/19 08:32:47;;;;;;;;;11.75;10.25;;;;;13.61;94.62;101169.72;5097747;27;45458;-79
2022/04/19 08:35:13;;;;;;;;;16.00;15.00;;;;;13.68;94.01;101176.94;5079234;27;45357;-79
2022/04/19 08:37:39;;;;;;;;;14.00;10.25;;;;;13.70;92.18;101169.19;5078704;27;46053;-75
2022/04/19 08:40:09;;;;;;;;;13.75;11.50;;;;;13.80;91.95;101166.09;5077741;27;45351;-78
2022/04/19 08:42:37;;;;;;;;;12.50;12.50;;;;;13.83;91.71;101163.63;5081940;28;45319;-74
2022/04/19 08:45:04;;;;;;;;;13.00;12.00;;;;;13.98;90.14;101167.63;5082882;28;45440;-76
2022/04/19 08:47:37;;;;;;;;;11.00;10.75;;;;;14.03;89.54;101158.25;5077550;27;45586;-75
2022/04/19 08:50:06;;;;;;;;;13.25;11.75;;;;;14.13;88.06;101168.16;5076943;27;45375;-81
2022/04/19 08:52:34;;;;;;;;;11.50;9.75;;;;;14.08;87.59;101141.09;5058739;28;45460;-77
2022/04/19 08:57:44;;;;;;;;;14.50;12.25;;;;;14.31;86.23;101159.22;5077720;28;45733;-82
2022/04/19 09:00:12;;;;;;;;;10.00;9.25;;;;;14.39;84.66;101160.41;5077269;28;45328;-79
2022/04/19 09:02:38;;;;;;;;;9.50;9.00;;;;;14.39;83.41;101150.84;5077265;28;45501;-78
2022/04/19 09:05:26;;;;;;;;;14.50;10.75;;;;;14.44;82.82;101150.13;5077004;28;45593;-77
2022/04/19 09:07:55;;;;;;;;;14.00;11.00;;;;;14.49;82.19;101149.47;5079647;27;46150;-74
2022/04/19 09:10:32;;;;;;;;;10.50;10.00;;;;;14.53;81.32;101142.63;5088797;27;45323;-74
2022/04/19 09:12:59;;;;;;;;;7.00;7.00;;;;;14.57;80.42;101144.50;5097210;27;45782;-76
2022/04/19 09:15:54;;;;;;;;;12.50;9.50;;;;;14.61;81.18;101140.28;5097575;27;45264;-75
2022/04/19 09:21:06;;;;;;;;;17.25;13.50;;;;;14.72;79.38;101131.16;5144563;27;45457;-76
2022/04/19 09:23:34;;;;;;;;;10.50;8.75;;;;;14.81;79.17;101141.88;5097814;27;45848;-76
2022/04/19 09:26:05;;;;;;;;;14.25;11.00;;;;;14.89;79.59;101134.31;5093242;27;45230;-76
2022/04/19 09:28:34;;;;;;;;;10.00;8.50;;;;;14.94;80.05;101129.22;5093780;27;45436;-78
2022/04/19 09:31:00;;;;;;;;;11.00;10.50;;;;;15.04;78.77;101131.28;5092791;27;45562;-78
2022/04/19 09:33:30;;;;;;;;;11.75;11.00;;;;;15.08;78.46;101127.06;5093619;27;45370;-75
2022/04/19 09:35:58;;;;;;;;;12.00;9.25;;;;;15.14;77.69;101132.44;5093686;27;45352;-80
2022/04/19 09:38:45;;;;;;;;;14.00;10.75;;;;;15.18;77.73;101121.28;5092205;27;45466;-80
2022/04/19 09:41:15;;;;;;;;;13.75;9.75;;;;;15.19;77.82;101117.84;5091596;27;47812;-80
2022/04/19 09:43:41;;;;;;;;;12.25;10.00;;;;;15.30;79.32;101121.66;5093647;27;45885;-77
2022/04/19 09:46:07;;;;;;;;;14.50;14.50;;;;;15.37;80.84;101132.28;5094102;27;45300;-77
2022/04/19 09:48:39;;;;;;;;;14.25;14.00;;;;;15.36;81.69;101128.78;5093212;27;45633;-79
2022/04/19 09:51:13;;;;;;;;;14.50;12.75;;;;;15.40;83.55;101129.75;5094830;27;45318;-80
2022/04/19 09:53:44;;;;;;;;;13.25;13.25;;;;;15.49;84.81;101127.44;5091938;27;45854;-80
2022/04/19 09:56:18;;;;;;;;;15.75;15.00;;;;;15.53;85.32;101113.63;5092863;27;45416;-80
2022/04/19 09:58:47;;;;;;;;;12.00;11.25;;;;;15.55;85.86;101109.31;5091716;27;45572;-76
2022/04/19 10:09:37;;;;;;;;;12.00;12.00;;;;;15.76;83.19;101089.94;5093536;27;45379;-76
2022/04/19 10:12:04;;;;;;;;;16.50;13.75;;;;;15.82;83.32;101091.81;5093255;27;46198;-76
2022/04/19 10:14:31;;;;;;;;;13.75;13.00;;;;;15.88;82.47;101097.22;5097681;27;45809;-81
2022/04/19 10:16:58;;;;;;;;;16.75;13.50;;;;;15.92;82.16;101091.28;5106822;27;45361;-77
2022/04/19 10:19:24;;;;;;;;;15.00;12.50;;;;;15.85;81.60;101068.41;5091995;27;45512;-77
2022/04/19 10:21:52;;;;;;;;;16.00;12.00;;;;;15.99;79.72;101079.22;5092413;27;45618;-80
2022/04/19 10:24:19;;;;;;;;;16.25;13.50;;;;;15.97;79.39;101067.88;5092265;27;45777;-84
2022/04/19 10:26:51;;;;;;;;;14.00;10.75;;;;;16.03;79.68;101062.81;5093007;27;45456;-81
2022/04/19 10:29:26;;;;;;;;;19.25;16.25;;;;;16.05;79.92;101061.13;5096816;27;45525;-77
2022/04/19 10:31:59;;;;;;;;;17.50;14.75;;;;;16.17;79.63;101074.50;5091835;27;45503;-80
2022/04/19 10:34:26;;;;;;;;;17.75;16.00;;;;;16.28;79.48;101086.97;5094403;27;45542;-79
2022/04/19 10:36:57;;;;;;;;;23.00;19.75;;;;;16.28;78.47;101074.78;5098068;27;44855;-81
2022/04/19 10:39:31;;;;;;;;;20.25;18.25;;;;;16.29;78.63;101060.88;5110510;27;45183;-80
2022/04/19 10:42:03;;;;;;;;;21.25;18.75;;;;;16.19;79.12;101041.50;5085303;27;45627;-79
2022/04/19 10:44:46;;;;;;;;;16.75;14.00;;;;;16.44;79.03;101059.50;5080305;27;46095;-76
2022/04/19 10:47:17;;;;;;;;;17.50;17.25;;;;;16.44;78.63;101057.75;5077426;27;45525;-77
2022/04/19 10:49:54;;;;;;;;;19.25;16.25;;;;;16.45;78.60;101045.59;5080295;27;45393;-77
2022/04/19 10:52:39;;;;;;;;;16.75;15.75;;;;;16.62;78.70;101067.78;5076043;27;45482;-77
2022/04/19 10:55:09;;;;;;;;;23.50;17.25;;;;;16.70;77.41;101068.84;5071672;27;45647;-76
2022/04/19 11:00:51;;;;;;;;;17.25;16.25;;;;;16.80;76.29;101055.97;5075356;28;45569;-75
2022/04/19 11:03:20;;;;;;;;;17.50;16.50;;;;;16.86;75.63;101066.59;5076381;27;45614;-75
2022/04/19 11:05:52;;;;;;;;;18.75;16.75;;;;;16.93;75.39;101059.78;5077519;27;45446;-78
2022/04/19 11:08:30;;;;;;;;;17.50;15.50;;;;;16.98;74.36;101051.22;5077031;27;45641;-77
2022/04/19 11:10:56;;;;;;;;;18.00;16.00;;;;;17.02;74.02;101057.41;5085589;27;45599;-78
2022/04/19 11:13:27;;;;;;;;;17.25;15.25;;;;;17.07;73.77;101052.25;5089254;27;45329;-74
2022/04/19 11:15:57;;;;;;;;;15.75;14.00;;;;;17.00;73.65;101033.84;5078022;27;45418;-74
2022/04/19 11:18:29;;;;;;;;;12.50;12.00;;;;;17.12;72.98;101038.44;5095255;27;45475;-80
2022/04/19 11:20:58;;;;;;;;;15.00;13.50;;;;;17.18;73.07;101041.16;5083191;27;45512;-73
2022/04/19 11:23:25;;;;;;;;;14.50;13.75;;;;;17.25;73.47;101044.81;5086214;27;45319;-76
2022/04/19 11:25:53;;;;;;;;;14.00;10.75;;;;;17.26;73.77;101032.63;5086573;27;45281;-76
2022/04/19 11:28:31;;;;;;;;;13.00;12.25;;;;;17.37;74.99;101040.66;5085510;27;45391;-76
2022/04/19 11:30:57;;;;;;;;;16.25;13.75;;;;;17.40;75.54;101040.75;5074433;27;45624;-79
2022/04/19 11:33:28;;;;;;;;;19.25;13.75;;;;;17.24;75.95;101001.16;5077530;28;46177;-79
2022/04/19 11:36:00;;;;;;;;;17.50;15.25;;;;;17.46;75.51;101028.66;5089715;27;45805;-76
2022/04/19 11:38:27;;;;;;;;;14.25;13.00;;;;;17.40;75.46;101025.03;5096582;27;45466;-80
2022/04/19 11:49:07;;;;;;;;;15.75;11.50;;;;;17.68;74.48;101036.94;5076611;27;45401;-79
2022/04/19 11:51:36;;;;;;;;;16.25;15.75;;;;;17.76;72.99;101045.81;5077881;27;45529;-80
2022/04/19 11:54:03;;;;;;;;;17.50;15.75;;;;;17.78;73.54;101038.88;5077406;27;45400;-77
2022/04/19 11:56:30;;;;;;;;;11.75;11.75;;;;;17.75;73.64;101025.72;5077241;27;45891;-80
2022/04/19 11:58:59;;;;;;;;;13.00;12.00;;;;;17.93;72.76;101033.03;5075192;27;45475;-81
2022/04/19 12:01:25;;;;;;;;;13.75;13.00;;;;;18.07;70.24;101038.53;5080159;27;45385;-75